createdAt,value
2017-11-29T00:00:18.938Z,0
2017-11-29T00:01:28.994Z,0
2017-11-29T00:02:40.565Z,0
2017-11-29T00:03:51.839Z,0
2017-11-29T00:05:02.443Z,0
2017-11-29T00:06:12.912Z,0
2017-11-29T00:07:22.938Z,0
2017-11-29T00:08:33.914Z,0
2017-11-29T00:09:45.910Z,0
2017-11-29T00:10:57.362Z,0
2017-11-29T00:12:07.354Z,0
2017-11-29T00:13:18.089Z,0
2017-11-29T00:14:28.600Z,0
2017-11-29T00:15:40.293Z,0
2017-11-29T00:16:50.540Z,0
2017-11-29T00:18:01.241Z,0
2017-11-29T00:19:12.041Z,0
2017-11-29T00:20:22.390Z,0
2017-11-29T00:21:33.897Z,0
2017-11-29T00:22:45.874Z,0
2017-11-29T00:23:56.178Z,0
2017-11-29T00:25:07.745Z,0
2017-11-29T00:26:19.546Z,0
2017-11-29T00:27:29.757Z,0
2017-11-29T00:28:42.622Z,0
2017-11-29T00:29:54.236Z,0
2017-11-29T00:31:05.538Z,0
2017-11-29T00:32:16.353Z,0
2017-11-29T00:33:26.624Z,0
2017-11-29T00:34:36.920Z,0
2017-11-29T00:35:47.283Z,0
2017-11-29T00:36:57.605Z,0
2017-11-29T00:38:09.145Z,0
2017-11-29T00:39:19.452Z,0
2017-11-29T00:40:30.792Z,0
2017-11-29T00:41:40.867Z,0
2017-11-29T00:42:52.727Z,0
2017-11-29T00:44:03.284Z,0
2017-11-29T00:45:13.202Z,0
2017-11-29T00:46:25.948Z,0
2017-11-29T00:47:36.454Z,0
2017-11-29T00:48:47.064Z,0
2017-11-29T00:49:57.335Z,0
2017-11-29T00:51:07.642Z,0
2017-11-29T00:52:18.435Z,0
2017-11-29T00:53:29.187Z,0
2017-11-29T00:54:40.563Z,0
2017-11-29T00:55:50.877Z,0
2017-11-29T00:57:01.222Z,0
2017-11-29T00:58:11.994Z,0
2017-11-29T00:59:22.538Z,0
2017-11-29T01:00:32.610Z,0
2017-11-29T01:01:42.697Z,0
2017-11-29T01:02:52.735Z,0
2017-11-29T01:04:03.366Z,0
2017-11-29T01:05:13.834Z,0
2017-11-29T01:06:24.119Z,0
2017-11-29T01:07:34.118Z,0
2017-11-29T01:08:44.436Z,0
2017-11-29T01:09:54.989Z,0
2017-11-29T01:11:04.981Z,0
2017-11-29T01:12:15.255Z,0
2017-11-29T01:13:25.904Z,0
2017-11-29T01:14:35.928Z,0
2017-11-29T01:15:46.288Z,0
2017-11-29T01:16:56.277Z,0
2017-11-29T01:18:06.662Z,0
2017-11-29T01:19:16.879Z,0
2017-11-29T01:20:27.341Z,0
2017-11-29T01:21:38.011Z,0
2017-11-29T01:22:49.897Z,0
2017-11-29T01:24:00.377Z,0
2017-11-29T01:25:12.125Z,0
2017-11-29T01:26:22.957Z,0
2017-11-29T01:27:33.253Z,0
2017-11-29T01:28:44.063Z,0
2017-11-29T01:29:54.376Z,0
2017-11-29T01:31:04.861Z,0
2017-11-29T01:32:15.402Z,0
2017-11-29T01:33:25.880Z,0
2017-11-29T01:34:36.249Z,0
2017-11-29T01:35:46.174Z,0
2017-11-29T01:36:56.221Z,0
2017-11-29T01:38:06.454Z,0
2017-11-29T01:39:17.738Z,0
2017-11-29T01:40:27.663Z,0
2017-11-29T01:41:38.022Z,0
2017-11-29T01:42:48.070Z,0
2017-11-29T01:43:58.636Z,0
2017-11-29T01:45:09.730Z,0
2017-11-29T01:46:21.819Z,0
2017-11-29T01:47:32.657Z,0
2017-11-29T01:48:42.962Z,0
2017-11-29T01:49:53.898Z,0
2017-11-29T01:51:04.240Z,0
2017-11-29T01:52:14.551Z,0
2017-11-29T01:53:25.705Z,0
2017-11-29T01:54:36.482Z,0
2017-11-29T01:55:46.776Z,0
2017-11-29T01:56:57.602Z,0
2017-11-29T01:58:07.889Z,0
2017-11-29T01:59:19.123Z,0
2017-11-29T02:00:31.831Z,0
2017-11-29T02:01:43.542Z,0
2017-11-29T02:02:54.854Z,0
2017-11-29T02:04:05.132Z,0
2017-11-29T02:05:15.697Z,0
2017-11-29T02:06:26.610Z,0
2017-11-29T02:07:36.945Z,0
2017-11-29T02:08:47.262Z,0
2017-11-29T02:09:57.304Z,0
2017-11-29T02:11:07.833Z,0
2017-11-29T02:12:18.332Z,0
2017-11-29T02:13:28.677Z,0
2017-11-29T02:14:38.962Z,0
2017-11-29T02:15:49.250Z,0
2017-11-29T02:16:59.461Z,0
2017-11-29T02:18:10.079Z,0
2017-11-29T02:19:20.355Z,0
2017-11-29T02:20:30.646Z,0
2017-11-29T02:21:41.372Z,0
2017-11-29T02:22:52.317Z,0
2017-11-29T02:24:02.969Z,0
2017-11-29T02:25:13.956Z,0
2017-11-29T02:26:24.206Z,0
2017-11-29T02:27:35.531Z,0
2017-11-29T02:28:46.196Z,0
2017-11-29T02:29:57.633Z,0
2017-11-29T02:31:08.427Z,0
2017-11-29T02:32:20.147Z,0
2017-11-29T02:33:31.123Z,0
2017-11-29T02:34:41.514Z,0
2017-11-29T02:35:52.101Z,0
2017-11-29T02:37:02.605Z,0
2017-11-29T02:38:12.918Z,0
2017-11-29T02:39:23.466Z,0
2017-11-29T02:40:33.745Z,0
2017-11-29T02:41:44.034Z,0
2017-11-29T02:42:54.584Z,0
2017-11-29T02:44:04.854Z,0
2017-11-29T02:45:15.428Z,0
2017-11-29T02:46:26.074Z,0
2017-11-29T02:47:37.544Z,0
2017-11-29T02:48:47.897Z,0
2017-11-29T02:49:58.173Z,0
2017-11-29T02:51:08.187Z,0
2017-11-29T02:52:18.855Z,0
2017-11-29T02:53:29.153Z,0
2017-11-29T02:54:40.312Z,0
2017-11-29T02:55:50.356Z,0
2017-11-29T02:57:00.842Z,0
2017-11-29T02:58:10.911Z,0
2017-11-29T02:59:21.180Z,0
2017-11-29T03:00:32.145Z,0
2017-11-29T03:01:42.648Z,0
2017-11-29T03:02:53.023Z,0
2017-11-29T03:04:03.307Z,0
2017-11-29T03:05:13.569Z,0
2017-11-29T03:06:23.553Z,0
2017-11-29T03:07:33.809Z,0
2017-11-29T03:08:44.076Z,0
2017-11-29T03:09:54.370Z,0
2017-11-29T03:11:04.145Z,0
2017-11-29T03:12:14.407Z,0
2017-11-29T03:13:24.699Z,0
2017-11-29T03:14:34.967Z,0
2017-11-29T03:15:45.236Z,0
2017-11-29T03:16:55.260Z,0
2017-11-29T03:18:05.375Z,0
2017-11-29T03:19:16.259Z,0
2017-11-29T03:20:26.143Z,0
2017-11-29T03:21:36.190Z,0
2017-11-29T03:22:46.500Z,0
2017-11-29T03:23:56.414Z,0
2017-11-29T03:25:06.932Z,0
2017-11-29T03:26:16.873Z,0
2017-11-29T03:27:27.357Z,0
2017-11-29T03:28:37.631Z,0
2017-11-29T03:29:47.371Z,0
2017-11-29T03:30:57.755Z,0
2017-11-29T03:32:08.092Z,0
2017-11-29T03:33:18.407Z,0
2017-11-29T03:34:28.691Z,0
2017-11-29T03:35:38.969Z,0
2017-11-29T03:36:49.248Z,0
2017-11-29T03:37:59.379Z,0
2017-11-29T03:39:09.646Z,0
2017-11-29T03:40:19.706Z,0
2017-11-29T03:41:30.009Z,0
2017-11-29T03:42:40.152Z,0
2017-11-29T03:43:50.168Z,0
2017-11-29T03:45:00.500Z,0
2017-11-29T03:46:10.532Z,0
2017-11-29T03:47:20.538Z,0
2017-11-29T03:48:30.425Z,0
2017-11-29T03:49:40.692Z,0
2017-11-29T03:50:50.821Z,0
2017-11-29T03:52:01.166Z,0
2017-11-29T03:53:11.467Z,0
2017-11-29T03:54:21.802Z,0
2017-11-29T03:55:31.730Z,0
2017-11-29T03:56:42.119Z,0
2017-11-29T03:57:52.525Z,0
2017-11-29T03:59:02.833Z,0
2017-11-29T04:00:12.775Z,0
2017-11-29T04:01:22.516Z,0
2017-11-29T04:02:32.807Z,0
2017-11-29T04:03:43.315Z,0
2017-11-29T04:04:53.612Z,0
2017-11-29T04:06:03.673Z,0
2017-11-29T04:07:13.748Z,0
2017-11-29T04:08:23.549Z,0
2017-11-29T04:09:33.456Z,0
2017-11-29T04:10:43.736Z,0
2017-11-29T04:11:54.216Z,0
2017-11-29T04:13:04.498Z,0
2017-11-29T04:14:14.391Z,0
2017-11-29T04:15:24.138Z,0
2017-11-29T04:16:34.440Z,0
2017-11-29T04:17:44.701Z,0
2017-11-29T04:18:55.095Z,0
2017-11-29T04:20:05.613Z,0
2017-11-29T04:21:15.935Z,0
2017-11-29T04:22:26.337Z,0
2017-11-29T04:23:36.608Z,0
2017-11-29T04:24:46.918Z,0
2017-11-29T04:25:57.212Z,0
2017-11-29T04:27:07.770Z,0
2017-11-29T04:28:17.901Z,0
2017-11-29T04:29:27.889Z,0
2017-11-29T04:30:37.953Z,0
2017-11-29T04:31:48.224Z,0
2017-11-29T04:32:58.567Z,0
2017-11-29T04:34:09.157Z,0
2017-11-29T04:35:18.856Z,0
2017-11-29T04:36:29.137Z,0
2017-11-29T04:37:39.638Z,0
2017-11-29T04:38:50.003Z,0
2017-11-29T04:40:00.280Z,0
2017-11-29T04:41:10.375Z,0
2017-11-29T04:42:21.020Z,0
2017-11-29T04:43:31.028Z,0
2017-11-29T04:44:41.041Z,0
2017-11-29T04:45:51.309Z,0
2017-11-29T04:47:01.380Z,0
2017-11-29T04:48:11.522Z,0
2017-11-29T04:49:21.894Z,0
2017-11-29T04:50:32.189Z,0
2017-11-29T04:51:42.275Z,0
2017-11-29T04:52:52.185Z,0
2017-11-29T04:54:02.216Z,0
2017-11-29T04:55:12.529Z,0
2017-11-29T04:56:22.800Z,0
2017-11-29T04:57:33.366Z,0
2017-11-29T04:58:43.672Z,0
2017-11-29T04:59:53.993Z,0
2017-11-29T05:01:04.276Z,0
2017-11-29T05:02:14.570Z,0
2017-11-29T05:03:24.447Z,0
2017-11-29T05:04:34.512Z,0
2017-11-29T05:05:45.038Z,0
2017-11-29T05:06:55.347Z,0
2017-11-29T05:08:05.639Z,0
2017-11-29T05:09:15.903Z,0
2017-11-29T05:10:26.172Z,0
2017-11-29T05:11:36.406Z,0
2017-11-29T05:12:46.852Z,0
2017-11-29T05:13:57.135Z,0
2017-11-29T05:15:07.409Z,0
2017-11-29T05:16:17.689Z,0
2017-11-29T05:17:28.009Z,0
2017-11-29T05:18:38.430Z,0
2017-11-29T05:19:48.706Z,0
2017-11-29T05:20:59.052Z,0
2017-11-29T05:22:09.183Z,0
2017-11-29T05:23:19.462Z,0
2017-11-29T05:24:29.786Z,0
2017-11-29T05:25:39.760Z,0
2017-11-29T05:26:49.653Z,0
2017-11-29T05:28:00.277Z,0
2017-11-29T05:29:10.806Z,0
2017-11-29T05:30:21.165Z,0
2017-11-29T05:31:31.530Z,0
2017-11-29T05:32:41.445Z,0
2017-11-29T05:33:51.802Z,0
2017-11-29T05:35:02.160Z,0
2017-11-29T05:36:12.412Z,0
2017-11-29T05:37:22.688Z,0
2017-11-29T05:38:32.826Z,0
2017-11-29T05:39:43.340Z,0
2017-11-29T05:40:53.793Z,0
2017-11-29T05:42:04.090Z,0
2017-11-29T05:43:14.489Z,0
2017-11-29T05:44:24.819Z,0
2017-11-29T05:45:34.829Z,0
2017-11-29T05:46:44.869Z,0
2017-11-29T05:47:55.167Z,0
2017-11-29T05:49:05.544Z,0
2017-11-29T05:50:15.820Z,0
2017-11-29T05:51:26.222Z,0
2017-11-29T05:52:36.272Z,0
2017-11-29T05:53:46.597Z,0
2017-11-29T05:54:56.904Z,0
2017-11-29T05:56:07.234Z,0
2017-11-29T05:57:17.504Z,0
2017-11-29T05:58:27.935Z,0
2017-11-29T05:59:38.224Z,0
2017-11-29T06:00:48.560Z,0
2017-11-29T06:01:58.863Z,0
2017-11-29T06:03:09.213Z,0
2017-11-29T06:04:19.498Z,0
2017-11-29T06:05:29.510Z,0
2017-11-29T06:06:39.420Z,0
2017-11-29T06:07:49.461Z,0
2017-11-29T06:08:59.905Z,0
2017-11-29T06:10:10.235Z,0
2017-11-29T06:11:20.444Z,0
2017-11-29T06:12:30.746Z,0
2017-11-29T06:13:40.751Z,0
2017-11-29T06:14:51.085Z,0
2017-11-29T06:16:01.319Z,0
2017-11-29T06:17:11.601Z,0
2017-11-29T06:18:22.125Z,0
2017-11-29T06:19:32.122Z,0
2017-11-29T06:20:42.343Z,0
2017-11-29T06:21:52.640Z,0
2017-11-29T06:23:03.019Z,0
2017-11-29T06:24:13.370Z,0
2017-11-29T06:25:23.426Z,0
2017-11-29T06:26:33.516Z,0
2017-11-29T06:27:43.246Z,0
2017-11-29T06:28:53.288Z,0
2017-11-29T06:30:03.578Z,0
2017-11-29T06:31:13.891Z,0
2017-11-29T06:32:24.326Z,0
2017-11-29T06:33:34.607Z,0
2017-11-29T06:34:44.910Z,0
2017-11-29T06:35:55.197Z,0
2017-11-29T06:37:05.704Z,0
2017-11-29T06:38:16.206Z,0
2017-11-29T06:39:26.507Z,0
2017-11-29T06:40:36.924Z,0
2017-11-29T06:41:47.214Z,0
2017-11-29T06:42:57.526Z,0
2017-11-29T06:44:07.807Z,0
2017-11-29T06:45:18.120Z,0
2017-11-29T06:46:28.417Z,0
2017-11-29T06:47:38.414Z,5
2017-11-29T06:48:48.982Z,5
2017-11-29T06:49:59.065Z,5
2017-11-29T06:51:09.373Z,5
2017-11-29T06:52:19.556Z,5
2017-11-29T06:53:29.985Z,5
2017-11-29T06:54:40.280Z,5
2017-11-29T06:55:50.406Z,10
2017-11-29T06:57:00.781Z,10
2017-11-29T06:58:11.127Z,10
2017-11-29T06:59:21.583Z,10
2017-11-29T07:00:31.859Z,15
2017-11-29T07:01:41.954Z,15
2017-11-29T07:02:51.873Z,15
2017-11-29T07:04:02.480Z,15
2017-11-29T07:05:11.643Z,20
2017-11-29T07:06:21.927Z,20
2017-11-29T07:07:32.061Z,20
2017-11-29T07:08:42.348Z,25
2017-11-29T07:09:52.431Z,25
2017-11-29T07:11:02.705Z,25
2017-11-29T07:12:12.968Z,30
2017-11-29T07:13:23.302Z,30
2017-11-29T07:14:33.580Z,30
2017-11-29T07:15:43.618Z,30
2017-11-29T07:16:53.540Z,35
2017-11-29T07:18:03.852Z,35
2017-11-29T07:19:14.243Z,35
2017-11-29T07:20:24.513Z,40
2017-11-29T07:21:34.648Z,40
2017-11-29T07:22:44.746Z,45
2017-11-29T07:23:54.372Z,45
2017-11-29T07:25:04.804Z,45
2017-11-29T07:26:14.832Z,50
2017-11-29T07:27:25.194Z,50
2017-11-29T07:28:35.516Z,50
2017-11-29T07:29:45.416Z,55
2017-11-29T07:30:55.338Z,55
2017-11-29T07:32:05.601Z,55
2017-11-29T07:33:15.388Z,60
2017-11-29T07:34:25.861Z,60
2017-11-29T07:35:35.539Z,65
2017-11-29T07:36:45.569Z,65
2017-11-29T07:37:55.893Z,65
2017-11-29T07:39:06.212Z,70
2017-11-29T07:40:16.498Z,70
2017-11-29T07:41:26.820Z,70
2017-11-29T07:42:37.158Z,75
2017-11-29T07:43:47.459Z,75
2017-11-29T07:44:57.480Z,80
2017-11-29T07:46:07.559Z,80
2017-11-29T07:47:17.869Z,80
2017-11-29T07:48:28.274Z,80
2017-11-29T07:49:38.614Z,75
2017-11-29T07:50:48.934Z,75
2017-11-29T07:51:59.234Z,80
2017-11-29T07:53:09.529Z,80
2017-11-29T07:54:19.538Z,85
2017-11-29T07:55:30.426Z,90
2017-11-29T07:56:40.884Z,90
2017-11-29T07:57:51.239Z,90
2017-11-29T07:59:01.771Z,95
2017-11-29T08:00:12.849Z,95
2017-11-29T08:01:23.286Z,95
2017-11-29T08:02:33.285Z,100
2017-11-29T08:03:43.703Z,100
2017-11-29T08:04:53.987Z,100
2017-11-29T08:06:04.261Z,105
2017-11-29T08:07:14.554Z,105
2017-11-29T08:08:24.845Z,110
2017-11-29T08:09:36.132Z,110
2017-11-29T08:10:46.662Z,115
2017-11-29T08:11:57.208Z,120
2017-11-29T08:13:07.271Z,120
2017-11-29T08:14:17.321Z,125
2017-11-29T08:15:27.392Z,130
2017-11-29T08:16:37.650Z,130
2017-11-29T08:17:47.949Z,135
2017-11-29T08:18:58.254Z,135
2017-11-29T08:20:08.056Z,140
2017-11-29T08:21:18.549Z,140
2017-11-29T08:22:28.596Z,140
2017-11-29T08:23:38.888Z,145
2017-11-29T08:24:49.223Z,150
2017-11-29T08:25:59.131Z,150
2017-11-29T08:27:09.473Z,150
2017-11-29T08:28:19.407Z,155
2017-11-29T08:29:29.668Z,155
2017-11-29T08:30:39.690Z,150
2017-11-29T08:31:50.035Z,155
2017-11-29T08:33:00.313Z,155
2017-11-29T08:34:10.600Z,165
2017-11-29T08:35:20.905Z,165
2017-11-29T08:36:30.965Z,165
2017-11-29T08:37:41.299Z,165
2017-11-29T08:38:51.738Z,170
2017-11-29T08:40:01.746Z,175
2017-11-29T08:41:12.072Z,175
2017-11-29T08:42:22.595Z,180
2017-11-29T08:43:32.632Z,180
2017-11-29T08:44:42.905Z,180
2017-11-29T08:45:53.163Z,185
2017-11-29T08:47:03.495Z,185
2017-11-29T08:48:13.740Z,185
2017-11-29T08:49:24.115Z,190
2017-11-29T08:50:34.428Z,190
2017-11-29T08:51:44.894Z,190
2017-11-29T08:52:54.947Z,195
2017-11-29T08:54:05.269Z,195
2017-11-29T08:55:15.585Z,195
2017-11-29T08:56:25.624Z,200
2017-11-29T08:57:35.669Z,195
2017-11-29T08:58:45.672Z,195
2017-11-29T08:59:55.975Z,195
2017-11-29T09:01:06.078Z,190
2017-11-29T09:02:16.409Z,190
2017-11-29T09:03:26.465Z,185
2017-11-29T09:04:36.787Z,195
2017-11-29T09:05:47.065Z,200
2017-11-29T09:06:57.344Z,200
2017-11-29T09:08:07.646Z,200
2017-11-29T09:09:18.095Z,205
2017-11-29T09:10:28.175Z,200
2017-11-29T09:11:38.207Z,205
2017-11-29T09:12:48.840Z,205
2017-11-29T09:13:58.814Z,200
2017-11-29T09:15:08.823Z,200
2017-11-29T09:16:18.843Z,200
2017-11-29T09:17:29.153Z,205
2017-11-29T09:18:39.476Z,210
2017-11-29T09:19:49.784Z,205
2017-11-29T09:20:59.803Z,210
2017-11-29T09:22:09.830Z,210
2017-11-29T09:23:20.123Z,195
2017-11-29T09:24:30.430Z,195
2017-11-29T09:25:40.489Z,190
2017-11-29T09:26:50.435Z,200
2017-11-29T09:28:00.977Z,200
2017-11-29T09:29:11.566Z,205
2017-11-29T09:30:22.078Z,200
2017-11-29T09:31:32.406Z,215
2017-11-29T09:32:42.449Z,220
2017-11-29T09:33:52.201Z,235
2017-11-29T09:35:02.723Z,240
2017-11-29T09:36:13.533Z,250
2017-11-29T09:37:24.334Z,250
2017-11-29T09:38:34.697Z,250
2017-11-29T09:39:44.968Z,265
2017-11-29T09:40:55.194Z,280
2017-11-29T09:42:05.423Z,290
2017-11-29T09:43:15.919Z,305
2017-11-29T09:44:26.240Z,310
2017-11-29T09:45:37.375Z,315
2017-11-29T09:46:47.677Z,280
2017-11-29T09:47:58.024Z,370
2017-11-29T09:49:08.048Z,675
2017-11-29T09:50:18.329Z,830
2017-11-29T09:51:27.694Z,845
2017-11-29T09:52:38.270Z,970
2017-11-29T09:53:48.536Z,970
2017-11-29T09:54:59.356Z,930
2017-11-29T09:56:09.740Z,1005
2017-11-29T09:57:20.090Z,1010
2017-11-29T09:58:30.427Z,1050
2017-11-29T09:59:41.459Z,995
2017-11-29T10:00:51.757Z,1020
2017-11-29T10:02:02.079Z,1090
2017-11-29T10:03:12.376Z,1065
2017-11-29T10:04:22.742Z,1105
2017-11-29T10:05:33.035Z,1165
2017-11-29T10:06:43.311Z,1180
2017-11-29T10:07:53.626Z,985
2017-11-29T10:09:03.912Z,1050
2017-11-29T10:10:13.862Z,1000
2017-11-29T10:11:24.140Z,1060
2017-11-29T10:12:35.920Z,1110
2017-11-29T10:13:46.478Z,1120
2017-11-29T10:14:56.671Z,1045
2017-11-29T10:16:06.973Z,1090
2017-11-29T10:17:16.906Z,1075
2017-11-29T10:18:27.231Z,1105
2017-11-29T10:19:38.191Z,1150
2017-11-29T10:20:48.524Z,1200
2017-11-29T10:21:58.808Z,1205
2017-11-29T10:23:09.601Z,1190
2017-11-29T10:24:21.212Z,1200
2017-11-29T10:25:31.159Z,1205
2017-11-29T10:26:41.832Z,1185
2017-11-29T10:27:52.790Z,1210
2017-11-29T10:29:04.040Z,955
2017-11-29T10:30:14.826Z,525
2017-11-29T10:31:26.084Z,835
2017-11-29T10:32:36.702Z,1265
2017-11-29T10:33:46.839Z,1320
2017-11-29T10:34:57.164Z,1370
2017-11-29T10:36:07.698Z,1390
2017-11-29T10:37:18.024Z,1390
2017-11-29T10:38:29.450Z,1365
2017-11-29T10:39:40.377Z,1330
2017-11-29T10:40:50.932Z,1275
2017-11-29T10:42:02.310Z,1245
2017-11-29T10:43:13.627Z,1220
2017-11-29T10:44:24.597Z,1215
2017-11-29T10:45:35.942Z,1225
2017-11-29T10:46:46.277Z,1255
2017-11-29T10:47:56.819Z,1350
2017-11-29T10:49:10.593Z,1320
2017-11-29T10:50:21.269Z,1200
2017-11-29T10:51:32.040Z,1065
2017-11-29T10:52:42.382Z,975
2017-11-29T10:53:53.096Z,940
2017-11-29T10:55:03.392Z,960
2017-11-29T10:56:13.871Z,1085
2017-11-29T10:57:25.450Z,1060
2017-11-29T10:58:35.860Z,1040
2017-11-29T10:59:46.700Z,1135
2017-11-29T11:00:57.941Z,1050
2017-11-29T11:02:08.097Z,1080
2017-11-29T11:03:18.609Z,1230
2017-11-29T11:04:28.766Z,1305
2017-11-29T11:05:39.283Z,1325
2017-11-29T11:06:50.074Z,1220
2017-11-29T11:08:00.347Z,1205
2017-11-29T11:09:10.301Z,1190
2017-11-29T11:10:20.234Z,1070
2017-11-29T11:11:30.606Z,1105
2017-11-29T11:12:41.323Z,1110
2017-11-29T11:13:51.916Z,1130
2017-11-29T11:15:01.887Z,1015
2017-11-29T11:16:12.246Z,1105
2017-11-29T11:17:23.572Z,1210
2017-11-29T11:18:33.884Z,1340
2017-11-29T11:19:43.917Z,1385
2017-11-29T11:20:53.962Z,1375
2017-11-29T11:22:04.386Z,1370
2017-11-29T11:23:15.163Z,1325
2017-11-29T11:24:25.451Z,1285
2017-11-29T11:25:35.807Z,1255
2017-11-29T11:26:46.270Z,1250
2017-11-29T11:27:56.913Z,1245
2017-11-29T11:29:06.290Z,1185
2017-11-29T11:30:16.647Z,1345
2017-11-29T11:31:26.993Z,1385
2017-11-29T11:32:37.555Z,1365
2017-11-29T11:33:48.101Z,1295
2017-11-29T11:34:58.446Z,1180
2017-11-29T11:36:08.936Z,1035
2017-11-29T11:37:19.245Z,920
2017-11-29T11:38:29.593Z,955
2017-11-29T11:39:39.295Z,990
2017-11-29T11:40:49.578Z,960
2017-11-29T11:41:59.944Z,940
2017-11-29T11:43:10.309Z,740
2017-11-29T11:44:20.707Z,805
2017-11-29T11:45:30.819Z,1015
2017-11-29T11:46:40.924Z,1015
2017-11-29T11:47:51.209Z,765
2017-11-29T11:49:01.886Z,710
2017-11-29T11:50:12.240Z,735
2017-11-29T11:51:22.516Z,690
2017-11-29T11:52:32.912Z,670
2017-11-29T11:53:43.246Z,640
2017-11-29T11:54:53.230Z,655
2017-11-29T11:56:03.645Z,485
2017-11-29T11:57:13.964Z,455
2017-11-29T11:58:24.123Z,350
2017-11-29T11:59:34.496Z,350
2017-11-29T12:00:44.836Z,350
2017-11-29T12:01:54.863Z,310
2017-11-29T12:03:05.184Z,300
2017-11-29T12:04:15.028Z,305
2017-11-29T12:05:25.482Z,390
2017-11-29T12:06:35.804Z,410
2017-11-29T12:07:46.340Z,405
2017-11-29T12:08:56.665Z,405
2017-11-29T12:10:06.990Z,405
2017-11-29T12:11:17.295Z,420
2017-11-29T12:12:27.762Z,435
2017-11-29T12:13:38.061Z,445
2017-11-29T12:14:48.343Z,455
2017-11-29T12:15:58.650Z,470
2017-11-29T12:17:08.979Z,445
2017-11-29T12:18:19.273Z,440
2017-11-29T12:19:28.918Z,435
2017-11-29T12:20:39.418Z,435
2017-11-29T12:21:49.067Z,390
2017-11-29T12:22:59.080Z,370
2017-11-29T12:24:09.451Z,365
2017-11-29T12:25:19.758Z,355
2017-11-29T12:26:30.101Z,345
2017-11-29T12:27:40.397Z,325
2017-11-29T12:28:50.706Z,305
2017-11-29T12:30:00.763Z,290
2017-11-29T12:31:10.768Z,265
2017-11-29T12:32:21.127Z,245
2017-11-29T12:33:31.242Z,225
2017-11-29T12:34:41.634Z,215
2017-11-29T12:35:51.936Z,210
2017-11-29T12:37:02.170Z,210
2017-11-29T12:38:12.472Z,205
2017-11-29T12:39:23.026Z,205
2017-11-29T12:40:33.304Z,205
2017-11-29T12:41:43.346Z,215
2017-11-29T12:42:53.454Z,215
2017-11-29T12:44:03.745Z,215
2017-11-29T12:45:14.036Z,215
2017-11-29T12:46:24.433Z,210
2017-11-29T12:47:34.575Z,210
2017-11-29T12:48:44.351Z,205
2017-11-29T12:49:54.429Z,210
2017-11-29T12:51:04.664Z,205
2017-11-29T12:52:14.713Z,200
2017-11-29T12:53:24.553Z,205
2017-11-29T12:54:34.879Z,200
2017-11-29T12:55:45.214Z,200
2017-11-29T12:56:55.530Z,200
2017-11-29T12:58:06.146Z,205
2017-11-29T12:59:16.348Z,210
2017-11-29T13:00:26.666Z,220
2017-11-29T13:01:36.619Z,225
2017-11-29T13:02:46.917Z,225
2017-11-29T13:03:57.017Z,225
2017-11-29T13:05:07.329Z,220
2017-11-29T13:06:17.629Z,215
2017-11-29T13:07:27.977Z,200
2017-11-29T13:08:38.662Z,190
2017-11-29T13:09:49.104Z,185
2017-11-29T13:10:59.197Z,175
2017-11-29T13:12:09.520Z,170
2017-11-29T13:13:19.874Z,170
2017-11-29T13:14:29.906Z,170
2017-11-29T13:15:40.236Z,175
2017-11-29T13:16:50.536Z,175
2017-11-29T13:18:00.838Z,175
2017-11-29T13:19:11.144Z,170
2017-11-29T13:20:21.160Z,170
2017-11-29T13:21:31.312Z,170
2017-11-29T13:22:41.658Z,170
2017-11-29T13:23:52.219Z,170
2017-11-29T13:25:02.615Z,170
2017-11-29T13:26:12.914Z,165
2017-11-29T13:27:23.203Z,165
2017-11-29T13:28:33.610Z,165
2017-11-29T13:29:43.956Z,160
2017-11-29T13:30:54.265Z,150
2017-11-29T13:32:04.612Z,145
2017-11-29T13:33:14.646Z,145
2017-11-29T13:34:24.675Z,140
2017-11-29T13:35:35.024Z,140
2017-11-29T13:36:45.320Z,135
2017-11-29T13:37:55.453Z,135
2017-11-29T13:39:05.754Z,130
2017-11-29T13:40:16.075Z,125
2017-11-29T13:41:26.100Z,120
2017-11-29T13:42:36.045Z,110
2017-11-29T13:43:46.432Z,105
2017-11-29T13:44:56.434Z,105
2017-11-29T13:46:06.726Z,105
2017-11-29T13:47:17.027Z,105
2017-11-29T13:48:27.357Z,100
2017-11-29T13:49:37.750Z,100
2017-11-29T13:50:48.048Z,100
2017-11-29T13:51:58.407Z,100
2017-11-29T13:53:08.739Z,100
2017-11-29T13:54:19.146Z,95
2017-11-29T13:55:29.440Z,85
2017-11-29T13:56:39.739Z,75
2017-11-29T13:57:50.176Z,70
2017-11-29T13:59:00.243Z,70
2017-11-29T14:00:10.642Z,65
2017-11-29T14:01:21.018Z,65
2017-11-29T14:02:31.568Z,60
2017-11-29T14:03:41.488Z,55
2017-11-29T14:04:51.772Z,55
2017-11-29T14:06:02.089Z,50
2017-11-29T14:07:12.286Z,45
2017-11-29T14:08:22.658Z,45
2017-11-29T14:09:32.971Z,45
2017-11-29T14:10:43.269Z,40
2017-11-29T14:11:53.349Z,40
2017-11-29T14:13:03.946Z,35
2017-11-29T14:14:14.276Z,35
2017-11-29T14:15:24.633Z,35
2017-11-29T14:16:34.935Z,35
2017-11-29T14:17:45.226Z,35
2017-11-29T14:18:55.550Z,35
2017-11-29T14:20:05.899Z,35
2017-11-29T14:21:16.203Z,35
2017-11-29T14:22:26.506Z,30
2017-11-29T14:23:36.820Z,30
2017-11-29T14:24:47.108Z,25
2017-11-29T14:25:57.519Z,25
2017-11-29T14:27:07.878Z,25
2017-11-29T14:28:18.301Z,25
2017-11-29T14:29:28.951Z,25
2017-11-29T14:30:38.451Z,25
2017-11-29T14:31:49.107Z,25
2017-11-29T14:32:58.768Z,25
2017-11-29T14:34:09.667Z,25
2017-11-29T14:35:19.952Z,25
2017-11-29T14:36:30.451Z,25
2017-11-29T14:37:40.747Z,25
2017-11-29T14:38:50.915Z,25
2017-11-29T14:40:01.266Z,25
2017-11-29T14:41:11.567Z,25
2017-11-29T14:42:22.032Z,25
2017-11-29T14:43:32.359Z,25
2017-11-29T14:44:42.681Z,25
2017-11-29T14:45:53.238Z,25
2017-11-29T14:47:03.324Z,25
2017-11-29T14:48:13.645Z,20
2017-11-29T14:49:23.924Z,20
2017-11-29T14:50:34.186Z,20
2017-11-29T14:51:46.231Z,15
2017-11-29T14:52:57.165Z,15
2017-11-29T14:54:07.703Z,15
2017-11-29T14:55:18.439Z,15
2017-11-29T14:56:28.704Z,10
2017-11-29T14:57:38.755Z,10
2017-11-29T14:58:49.033Z,10
2017-11-29T14:59:59.373Z,10
2017-11-29T15:01:09.714Z,10
2017-11-29T15:02:20.162Z,5
2017-11-29T15:03:30.493Z,5
2017-11-29T15:04:41.249Z,5
2017-11-29T15:05:51.777Z,5
2017-11-29T15:07:02.465Z,5
2017-11-29T15:08:12.919Z,5
2017-11-29T15:09:23.741Z,5
2017-11-29T15:10:34.477Z,0
2017-11-29T15:11:44.566Z,0
2017-11-29T15:12:55.111Z,0
2017-11-29T15:14:05.606Z,0
2017-11-29T15:15:16.186Z,0
2017-11-29T15:16:26.475Z,0
2017-11-29T15:17:36.986Z,0
2017-11-29T15:18:47.803Z,0
2017-11-29T15:19:58.312Z,0
2017-11-29T15:21:08.762Z,0
2017-11-29T15:22:18.784Z,0
2017-11-29T15:23:29.065Z,0
2017-11-29T15:24:39.653Z,0
2017-11-29T15:25:49.738Z,0
2017-11-29T15:27:00.270Z,0
2017-11-29T15:28:10.582Z,0
2017-11-29T15:29:21.055Z,0
2017-11-29T15:30:31.055Z,0
2017-11-29T15:31:41.347Z,0
2017-11-29T15:32:52.102Z,0
2017-11-29T15:34:02.755Z,0
2017-11-29T15:35:13.737Z,0
2017-11-29T15:36:24.317Z,0
2017-11-29T15:37:34.860Z,0
2017-11-29T15:38:44.944Z,0
2017-11-29T15:39:55.215Z,0
2017-11-29T15:41:05.783Z,0
2017-11-29T15:42:16.089Z,0
2017-11-29T15:43:26.413Z,0
2017-11-29T15:44:36.488Z,0
2017-11-29T15:45:47.028Z,0
2017-11-29T15:46:57.488Z,0
2017-11-29T15:48:07.889Z,0
2017-11-29T15:49:18.283Z,0
2017-11-29T15:50:28.642Z,0
2017-11-29T15:51:38.706Z,0
2017-11-29T15:52:49.114Z,0
2017-11-29T15:53:59.429Z,0
2017-11-29T15:55:09.739Z,0
2017-11-29T15:56:20.097Z,0
2017-11-29T15:57:30.956Z,0
2017-11-29T15:58:41.511Z,0
2017-11-29T15:59:51.840Z,0
2017-11-29T16:01:02.486Z,0
2017-11-29T16:02:12.803Z,0
2017-11-29T16:03:22.860Z,0
2017-11-29T16:04:33.644Z,0
2017-11-29T16:05:43.670Z,0
2017-11-29T16:06:53.992Z,0
2017-11-29T16:08:04.572Z,0
2017-11-29T16:09:14.942Z,0
2017-11-29T16:10:25.630Z,0
2017-11-29T16:11:35.591Z,0
2017-11-29T16:12:45.512Z,0
2017-11-29T16:13:55.260Z,0
2017-11-29T16:15:05.655Z,0
2017-11-29T16:16:15.838Z,0
2017-11-29T16:17:26.260Z,0
2017-11-29T16:18:36.271Z,0
2017-11-29T16:19:46.840Z,0
2017-11-29T16:20:56.870Z,0
2017-11-29T16:22:08.349Z,0
2017-11-29T16:23:18.950Z,0
2017-11-29T16:24:29.760Z,0
2017-11-29T16:25:40.073Z,0
2017-11-29T16:26:50.360Z,0
2017-11-29T16:28:01.000Z,0
2017-11-29T16:29:11.279Z,0
2017-11-29T16:30:21.312Z,0
2017-11-29T16:31:31.776Z,0
2017-11-29T16:32:42.685Z,0
2017-11-29T16:33:53.430Z,0
2017-11-29T16:35:03.902Z,0
2017-11-29T16:36:14.477Z,0
2017-11-29T16:37:24.854Z,0
2017-11-29T16:38:35.141Z,0
2017-11-29T16:39:45.462Z,0
2017-11-29T16:40:55.857Z,0
2017-11-29T16:42:06.237Z,0
2017-11-29T16:43:16.565Z,0
2017-11-29T16:44:26.632Z,0
2017-11-29T16:45:37.086Z,0